createdAt,value
2018-09-05T00:02:07.864Z,8.73
2018-09-05T00:04:36.517Z,9.77
2018-09-05T00:07:05.062Z,10.63
2018-09-05T00:09:33.601Z,13.47
2018-09-05T00:12:02.318Z,10.20
2018-09-05T00:14:30.853Z,9.03
2018-09-05T00:16:59.345Z,11.07
2018-09-05T00:19:27.845Z,8.80
2018-09-05T00:21:56.342Z,9.80
2018-09-05T00:24:24.881Z,10.97
2018-09-05T00:26:53.408Z,10.90
2018-09-05T00:29:21.897Z,9.20
2018-09-05T00:31:50.434Z,11.50
2018-09-05T00:34:18.986Z,8.77
2018-09-05T00:36:47.511Z,8.77
2018-09-05T00:39:16.014Z,12.13
2018-09-05T00:41:44.554Z,9.17
2018-09-05T00:44:13.158Z,9.40
2018-09-05T00:46:41.628Z,9.80
2018-09-05T00:49:10.143Z,9.43
2018-09-05T00:51:38.638Z,10.17
2018-09-05T00:54:07.166Z,9.67
2018-09-05T00:56:35.648Z,10.53
2018-09-05T00:59:04.177Z,10.63
2018-09-05T01:01:32.657Z,12.53
2018-09-05T01:04:01.168Z,10.80
2018-09-05T01:06:29.697Z,9.83
2018-09-05T01:08:58.291Z,9.60
2018-09-05T01:11:26.837Z,10.27
2018-09-05T01:13:55.382Z,10.77
2018-09-05T01:16:24.448Z,11.63
2018-09-05T01:18:52.977Z,10.60
2018-09-05T01:21:21.516Z,11.63
2018-09-05T01:23:50.056Z,13.63
2018-09-05T01:26:18.709Z,11.37
2018-09-05T01:28:47.251Z,10.93
2018-09-05T01:31:15.840Z,9.40
2018-09-05T01:33:44.381Z,9.53
2018-09-05T01:36:16.457Z,12.67
2018-09-05T01:38:45.234Z,10.40
2018-09-05T01:41:14.728Z,12.20
2018-09-05T01:43:43.825Z,10.70
2018-09-05T01:46:12.407Z,11.27
2018-09-05T01:48:40.937Z,16.20
2018-09-05T01:51:09.556Z,10.70
2018-09-05T01:53:38.095Z,10.20
2018-09-05T01:56:06.668Z,10.20
2018-09-05T01:58:35.174Z,12.53
2018-09-05T02:01:03.757Z,10.20
2018-09-05T02:03:32.538Z,11.30
2018-09-05T02:06:01.128Z,11.80
2018-09-05T02:08:29.624Z,9.93
2018-09-05T02:10:58.141Z,9.00
2018-09-05T02:13:26.625Z,9.17
2018-09-05T02:15:55.720Z,11.80
2018-09-05T02:18:24.206Z,11.23
2018-09-05T02:20:52.765Z,10.30
2018-09-05T02:23:21.257Z,10.70
2018-09-05T02:25:49.761Z,9.50
2018-09-05T02:28:18.246Z,9.53
2018-09-05T02:30:46.779Z,10.67
2018-09-05T02:33:15.268Z,18.67
2018-09-05T02:35:43.789Z,10.17
2018-09-05T02:38:12.269Z,11.17
2018-09-05T02:40:40.837Z,11.07
2018-09-05T02:43:09.289Z,10.13
2018-09-05T02:45:37.859Z,10.73
2018-09-05T02:48:06.378Z,13.03
2018-09-05T02:50:34.903Z,10.43
2018-09-05T02:53:03.406Z,10.10
2018-09-05T02:55:37.113Z,11.23
2018-09-05T02:58:05.917Z,10.17
2018-09-05T03:00:34.438Z,12.23
2018-09-05T03:03:03.078Z,10.13
2018-09-05T03:05:31.631Z,10.87
2018-09-05T03:08:00.166Z,9.93
2018-09-05T03:10:28.733Z,11.00
2018-09-05T03:12:57.252Z,10.87
2018-09-05T03:15:25.822Z,9.87
2018-09-05T03:17:54.330Z,11.90
2018-09-05T03:20:23.509Z,11.37
2018-09-05T03:22:52.053Z,11.83
2018-09-05T03:25:20.590Z,10.97
2018-09-05T03:27:49.118Z,12.10
2018-09-05T03:30:17.653Z,13.27
2018-09-05T03:32:46.318Z,11.97
2018-09-05T03:35:14.765Z,10.07
2018-09-05T03:37:43.275Z,11.07
2018-09-05T03:40:11.821Z,10.63
2018-09-05T03:42:40.331Z,10.90
2018-09-05T03:45:08.865Z,11.90
2018-09-05T03:47:37.386Z,11.60
2018-09-05T03:50:07.083Z,12.47
2018-09-05T03:52:35.590Z,12.87
2018-09-05T03:55:04.168Z,12.43
2018-09-05T03:57:32.721Z,15.50
2018-09-05T04:00:01.244Z,13.33
2018-09-05T04:02:29.785Z,12.03
2018-09-05T04:04:59.054Z,12.37
2018-09-05T04:07:28.246Z,11.70
2018-09-05T04:09:56.814Z,13.70
2018-09-05T04:12:25.514Z,11.17
2018-09-05T04:14:54.034Z,11.20
2018-09-05T04:17:22.845Z,12.57
2018-09-05T04:19:51.602Z,11.27
2018-09-05T04:22:20.142Z,10.00
2018-09-05T04:24:48.656Z,12.03
2018-09-05T04:27:17.189Z,11.47
2018-09-05T04:29:45.748Z,10.43
2018-09-05T04:32:14.279Z,12.43
2018-09-05T04:34:42.786Z,11.80
2018-09-05T04:37:11.330Z,11.70
2018-09-05T04:39:39.909Z,12.20
2018-09-05T04:42:08.524Z,11.10
2018-09-05T04:44:37.057Z,11.20
2018-09-05T04:47:05.651Z,13.27
2018-09-05T04:49:34.202Z,11.33
2018-09-05T04:52:02.761Z,11.10
2018-09-05T04:54:31.261Z,10.70
2018-09-05T04:56:59.809Z,12.27
2018-09-05T04:59:28.320Z,10.20
2018-09-05T05:01:56.862Z,10.43
2018-09-05T05:04:25.373Z,10.80
2018-09-05T05:06:53.937Z,11.93
2018-09-05T05:09:22.456Z,11.43
2018-09-05T05:11:50.974Z,10.97
2018-09-05T05:14:19.467Z,18.07
2018-09-05T05:16:48.000Z,15.80
2018-09-05T05:19:16.501Z,13.57
2018-09-05T05:21:45.103Z,14.30
2018-09-05T05:24:13.611Z,12.43
2018-09-05T05:26:42.165Z,15.43
2018-09-05T05:29:10.678Z,13.07
2018-09-05T05:31:39.509Z,12.13
2018-09-05T05:34:07.989Z,13.93
2018-09-05T05:36:36.535Z,11.50
2018-09-05T05:39:09.041Z,10.90
2018-09-05T05:41:38.132Z,10.57
2018-09-05T05:44:06.861Z,11.33
2018-09-05T05:46:36.374Z,10.03
2018-09-05T05:49:05.056Z,15.03
2018-09-05T05:51:33.670Z,13.90
2018-09-05T05:54:02.429Z,12.60
2018-09-05T05:56:31.056Z,13.93
2018-09-05T05:58:59.906Z,13.80
2018-09-05T06:01:28.594Z,12.03
2018-09-05T06:03:57.125Z,12.97
2018-09-05T06:06:25.723Z,12.73
2018-09-05T06:08:54.229Z,14.93
2018-09-05T06:11:22.972Z,11.33
2018-09-05T06:13:51.527Z,11.50
2018-09-05T06:16:20.073Z,11.20
2018-09-05T06:18:48.668Z,12.47
2018-09-05T06:21:17.215Z,11.20
2018-09-05T06:23:45.766Z,12.77
2018-09-05T06:26:14.335Z,14.07
2018-09-05T06:28:42.848Z,14.90
2018-09-05T06:31:11.624Z,13.73
2018-09-05T06:33:40.123Z,13.67
2018-09-05T06:36:08.613Z,15.23
2018-09-05T06:38:37.202Z,14.00
2018-09-05T06:41:05.971Z,17.87
2018-09-05T06:43:34.546Z,15.27
2018-09-05T06:46:03.098Z,15.57
2018-09-05T06:48:31.722Z,15.40
2018-09-05T06:51:06.444Z,16.10
2018-09-05T06:53:36.050Z,15.03
2018-09-05T06:56:04.711Z,11.57
2018-09-05T06:58:33.683Z,13.47
2018-09-05T07:01:02.201Z,14.17
2018-09-05T07:03:30.909Z,14.77
2018-09-05T07:05:59.498Z,11.47
2018-09-05T07:08:28.050Z,15.77
2018-09-05T07:10:56.591Z,13.63
2018-09-05T07:13:25.151Z,16.03
2018-09-05T07:15:53.694Z,13.97
2018-09-05T07:18:22.255Z,15.10
2018-09-05T07:20:50.778Z,14.63
2018-09-05T07:23:19.319Z,15.90
2018-09-05T07:25:48.043Z,15.17
2018-09-05T07:28:16.602Z,13.30
2018-09-05T07:30:45.132Z,17.37
2018-09-05T07:33:14.321Z,15.23
2018-09-05T07:35:43.036Z,12.47
2018-09-05T07:38:11.522Z,16.50
2018-09-05T07:40:40.485Z,15.90
2018-09-05T07:43:09.022Z,14.20
2018-09-05T07:45:37.582Z,13.40
2018-09-05T07:48:06.145Z,13.73
2018-09-05T07:50:34.669Z,14.93
2018-09-05T07:53:03.249Z,13.13
2018-09-05T07:55:31.753Z,14.90
2018-09-05T07:58:00.380Z,12.00
2018-09-05T08:00:29.023Z,15.67
2018-09-05T08:02:57.678Z,16.57
2018-09-05T08:05:27.498Z,11.93
2018-09-05T08:07:56.134Z,13.97
2018-09-05T08:10:24.645Z,14.53
2018-09-05T08:12:53.227Z,13.40
2018-09-05T08:15:21.877Z,14.33
2018-09-05T08:17:50.617Z,12.93
2018-09-05T08:20:19.824Z,12.23
2018-09-05T08:22:48.925Z,12.37
2018-09-05T08:25:17.465Z,12.10
2018-09-05T08:27:46.009Z,13.17
2018-09-05T08:30:14.566Z,13.00
2018-09-05T08:32:43.121Z,13.33
2018-09-05T08:35:12.248Z,11.50
2018-09-05T08:37:40.823Z,12.90
2018-09-05T08:40:09.245Z,13.10
2018-09-05T08:42:38.134Z,12.53
2018-09-05T08:45:07.447Z,11.07
2018-09-05T08:47:35.812Z,12.97
2018-09-05T08:50:04.393Z,12.23
2018-09-05T08:52:32.873Z,11.03
2018-09-05T08:55:02.308Z,11.27
2018-09-05T08:57:31.353Z,12.63
2018-09-05T08:59:59.885Z,12.23
2018-09-05T09:02:28.456Z,11.60
2018-09-05T09:04:56.983Z,11.67
2018-09-05T09:07:25.542Z,12.13
2018-09-05T09:09:54.645Z,12.27
2018-09-05T09:12:23.297Z,12.30
2018-09-05T09:14:51.780Z,13.37
2018-09-05T09:17:20.334Z,12.50
2018-09-05T09:19:48.855Z,14.03
2018-09-05T09:22:17.433Z,11.30
2018-09-05T09:24:46.070Z,12.70
2018-09-05T09:27:14.625Z,14.07
2018-09-05T09:29:43.179Z,13.10
2018-09-05T09:32:11.728Z,15.87
2018-09-05T09:34:40.274Z,14.07
2018-09-05T09:37:08.931Z,13.00
2018-09-05T09:39:37.552Z,16.23
2018-09-05T09:42:07.318Z,12.47
2018-09-05T09:44:35.858Z,12.17
2018-09-05T09:47:08.804Z,18.20
2018-09-05T09:49:40.919Z,12.10
2018-09-05T09:52:14.884Z,13.17
2018-09-05T09:54:43.642Z,12.37
2018-09-05T09:57:12.295Z,14.70
2018-09-05T09:59:40.934Z,12.83
2018-09-05T10:02:14.737Z,12.77
2018-09-05T10:04:48.531Z,12.60
2018-09-05T10:07:22.567Z,15.70
2018-09-05T10:09:56.618Z,13.17
2018-09-05T10:12:30.318Z,12.07
2018-09-05T10:15:02.935Z,12.67
2018-09-05T10:17:36.096Z,12.93
2018-09-05T10:20:04.841Z,13.27
2018-09-05T10:22:33.596Z,13.37
2018-09-05T10:25:02.733Z,12.87
2018-09-05T10:27:31.246Z,14.63
2018-09-05T10:29:59.796Z,15.17
2018-09-05T10:32:28.303Z,13.77
2018-09-05T10:34:57.318Z,14.10
2018-09-05T10:37:26.097Z,12.77
2018-09-05T10:39:54.778Z,19.73
2018-09-05T10:42:23.294Z,13.17
2018-09-05T10:44:51.858Z,16.57
2018-09-05T10:47:20.356Z,12.97
2018-09-05T10:49:48.894Z,15.27
2018-09-05T10:52:18.043Z,12.60
2018-09-05T10:54:46.606Z,14.27
2018-09-05T10:57:15.360Z,16.73
2018-09-05T10:59:44.087Z,15.50
2018-09-05T11:02:12.600Z,14.13
2018-09-05T11:04:41.406Z,13.60
2018-09-05T11:07:09.963Z,13.83
2018-09-05T11:09:38.517Z,12.90
2018-09-05T11:12:07.142Z,16.87
2018-09-05T11:14:35.716Z,15.80
2018-09-05T11:17:04.265Z,16.40
2018-09-05T11:19:32.821Z,19.03
2018-09-05T11:22:01.365Z,15.00
2018-09-05T11:24:30.134Z,16.67
2018-09-05T11:26:58.739Z,14.10
2018-09-05T11:29:27.469Z,18.40
2018-09-05T11:31:56.048Z,15.77
2018-09-05T11:34:24.581Z,16.10
2018-09-05T11:36:53.230Z,13.40
2018-09-05T11:39:21.831Z,14.93
2018-09-05T11:41:50.421Z,14.53
2018-09-05T11:44:19.185Z,14.30
2018-09-05T11:46:47.843Z,16.33
2018-09-05T11:49:16.387Z,22.53
2018-09-05T11:51:45.036Z,17.27
2018-09-05T11:54:13.617Z,13.57
2018-09-05T11:56:42.224Z,15.50
2018-09-05T11:59:10.759Z,13.60
2018-09-05T12:01:39.350Z,17.83
2018-09-05T12:04:07.889Z,13.77
2018-09-05T12:06:36.549Z,13.23
2018-09-05T12:09:08.623Z,13.63
2018-09-05T12:11:37.333Z,13.33
2018-09-05T12:14:06.008Z,18.03
2018-09-05T12:16:36.094Z,13.40
2018-09-05T12:19:05.988Z,12.70
2018-09-05T12:21:34.636Z,15.00
2018-09-05T12:24:03.431Z,13.33
2018-09-05T12:26:32.141Z,13.17
2018-09-05T12:29:00.898Z,14.60
2018-09-05T12:31:29.545Z,14.30
2018-09-05T12:33:58.140Z,13.43
2018-09-05T12:36:26.726Z,13.20
2018-09-05T12:38:55.594Z,13.50
2018-09-05T12:41:24.234Z,12.37
2018-09-05T12:43:52.757Z,14.20
2018-09-05T12:46:21.337Z,11.53
2018-09-05T12:48:50.361Z,16.67
2018-09-05T12:51:19.026Z,12.93
2018-09-05T12:53:47.702Z,12.23
2018-09-05T12:56:16.253Z,13.13
2018-09-05T12:58:44.781Z,13.70
2018-09-05T13:01:14.042Z,12.50
2018-09-05T13:03:42.631Z,12.43
2018-09-05T13:06:11.345Z,13.47
2018-09-05T13:08:40.053Z,12.20
2018-09-05T13:11:08.626Z,12.23
2018-09-05T13:13:37.209Z,13.10
2018-09-05T13:16:05.813Z,13.40
2018-09-05T13:18:34.420Z,14.73
2018-09-05T13:21:03.077Z,11.47
2018-09-05T13:23:31.773Z,12.70
2018-09-05T13:26:00.330Z,11.63
2018-09-05T13:28:28.904Z,13.40
2018-09-05T13:30:57.568Z,17.73
2018-09-05T13:33:26.114Z,12.60
2018-09-05T13:35:54.722Z,13.73
2018-09-05T13:38:23.290Z,13.43
2018-09-05T13:40:51.889Z,12.53
2018-09-05T13:43:20.458Z,13.37
2018-09-05T13:45:48.995Z,12.30
2018-09-05T13:48:17.555Z,15.97
2018-09-05T13:50:46.330Z,12.17
2018-09-05T13:53:14.934Z,11.47
2018-09-05T13:55:43.577Z,11.83
2018-09-05T13:58:12.135Z,13.00
2018-09-05T14:00:40.703Z,11.00
2018-09-05T14:03:09.265Z,12.97
2018-09-05T14:05:37.831Z,10.93
2018-09-05T14:08:06.501Z,16.43
2018-09-05T14:10:35.048Z,14.77
2018-09-05T14:13:03.743Z,12.53
2018-09-05T14:15:32.353Z,9.90
2018-09-05T14:18:01.025Z,10.90
2018-09-05T14:20:29.739Z,15.30
2018-09-05T14:23:02.483Z,16.60
2018-09-05T14:25:31.401Z,11.63
2018-09-05T14:28:00.530Z,10.23
2018-09-05T14:30:29.166Z,11.17
2018-09-05T14:32:57.734Z,11.30
2018-09-05T14:35:26.256Z,13.87
2018-09-05T14:37:54.846Z,12.27
2018-09-05T14:40:23.436Z,12.70
2018-09-05T14:42:52.097Z,13.00
2018-09-05T14:45:20.654Z,10.83
2018-09-05T14:47:49.193Z,11.00
2018-09-05T14:50:17.694Z,11.60
2018-09-05T14:52:46.230Z,13.27
2018-09-05T14:55:14.910Z,12.87
2018-09-05T14:57:43.534Z,10.90
2018-09-05T15:00:12.097Z,15.23
2018-09-05T15:02:40.642Z,11.77
2018-09-05T15:05:09.199Z,11.07
2018-09-05T15:07:37.826Z,14.87
2018-09-05T15:10:06.641Z,13.97
2018-09-05T15:12:35.167Z,13.60
2018-09-05T15:15:03.810Z,13.33
2018-09-05T15:17:32.360Z,11.33
2018-09-05T15:20:00.858Z,14.10
2018-09-05T15:22:29.378Z,11.30
2018-09-05T15:24:57.894Z,10.93
2018-09-05T15:27:26.415Z,13.97
2018-09-05T15:29:54.913Z,15.30
2018-09-05T15:32:23.495Z,22.13
2018-09-05T15:34:51.970Z,10.60
2018-09-05T15:37:20.511Z,11.13
2018-09-05T15:39:49.025Z,13.33
2018-09-05T15:42:17.557Z,13.90
2018-09-05T15:44:46.058Z,13.50
2018-09-05T15:47:14.601Z,10.70
2018-09-05T15:49:43.417Z,13.37
2018-09-05T15:52:11.920Z,11.30
2018-09-05T15:54:40.446Z,14.30
2018-09-05T15:57:09.005Z,10.87
2018-09-05T15:59:37.547Z,11.20
2018-09-05T16:02:06.439Z,13.90
2018-09-05T16:04:34.985Z,13.70
2018-09-05T16:07:03.541Z,11.73
2018-09-05T16:09:32.109Z,12.50
2018-09-05T16:12:00.623Z,11.70
2018-09-05T16:14:29.149Z,12.57
2018-09-05T16:16:57.751Z,12.13
2018-09-05T16:19:26.284Z,13.23
2018-09-05T16:21:54.858Z,11.83
2018-09-05T16:24:23.348Z,12.47
2018-09-05T16:26:51.864Z,15.83
2018-09-05T16:29:20.381Z,15.03
2018-09-05T16:31:49.810Z,12.23
2018-09-05T16:34:18.354Z,16.50
2018-09-05T16:36:46.879Z,16.97
2018-09-05T16:39:15.398Z,14.80
2018-09-05T16:41:43.902Z,11.90
2018-09-05T16:44:12.443Z,13.63
2018-09-05T16:46:40.953Z,13.60
2018-09-05T16:49:09.496Z,14.80
2018-09-05T16:51:37.995Z,12.37
2018-09-05T16:54:06.530Z,12.43
2018-09-05T16:56:35.634Z,13.27
2018-09-05T16:59:04.234Z,12.20
2018-09-05T17:01:32.775Z,12.77
2018-09-05T17:04:01.332Z,14.00
2018-09-05T17:06:29.897Z,15.67
2018-09-05T17:08:58.445Z,17.07
2018-09-05T17:11:26.950Z,21.93
2018-09-05T17:13:55.494Z,14.80
2018-09-05T17:16:24.045Z,16.40
2018-09-05T17:18:52.595Z,13.73
2018-09-05T17:21:21.115Z,11.77
2018-09-05T17:23:49.661Z,13.10
2018-09-05T17:26:18.226Z,13.43
2018-09-05T17:28:46.786Z,15.70
2018-09-05T17:31:15.405Z,12.67
2018-09-05T17:33:43.923Z,12.30
2018-09-05T17:36:12.481Z,13.17
2018-09-05T17:38:41.005Z,16.93
2018-09-05T17:41:09.582Z,14.83
2018-09-05T17:43:38.117Z,14.20
2018-09-05T17:46:06.694Z,15.43
2018-09-05T17:48:35.220Z,14.43
2018-09-05T17:51:03.777Z,15.37
2018-09-05T17:53:32.310Z,13.80
2018-09-05T17:56:00.871Z,14.13
2018-09-05T17:58:29.418Z,13.97
2018-09-05T18:00:59.370Z,12.13
2018-09-05T18:03:27.886Z,19.40
2018-09-05T18:05:56.438Z,16.03
2018-09-05T18:08:25.972Z,14.13
2018-09-05T18:10:54.490Z,14.23
2018-09-05T18:13:22.984Z,15.23
2018-09-05T18:15:51.541Z,16.47
2018-09-05T18:18:20.090Z,14.60
2018-09-05T18:20:48.622Z,17.63
2018-09-05T18:23:17.129Z,15.13
2018-09-05T18:25:45.695Z,14.20
2018-09-05T18:28:14.210Z,17.80
2018-09-05T18:30:42.797Z,17.43
2018-09-05T18:33:11.404Z,14.83
2018-09-05T18:35:39.930Z,15.10
2018-09-05T18:38:08.465Z,15.40
2018-09-05T18:40:37.000Z,14.30
2018-09-05T18:43:05.513Z,17.00
2018-09-05T18:45:34.122Z,18.37
2018-09-05T18:48:02.781Z,15.27
2018-09-05T18:50:31.860Z,15.77
2018-09-05T18:53:05.825Z,16.73
2018-09-05T18:55:34.362Z,13.77
2018-09-05T18:58:02.901Z,17.60
2018-09-05T19:00:31.467Z,14.67
2018-09-05T19:02:59.963Z,16.07
2018-09-05T19:05:28.515Z,17.80
2018-09-05T19:07:57.104Z,16.43
2018-09-05T19:10:25.622Z,19.67
2018-09-05T19:12:54.824Z,19.13
2018-09-05T19:15:23.367Z,14.60
2018-09-05T19:17:52.285Z,13.57
2018-09-05T19:20:20.864Z,16.07
2018-09-05T19:22:49.449Z,17.00
2018-09-05T19:25:17.970Z,14.77
2018-09-05T19:27:46.524Z,13.83
2018-09-05T19:30:15.046Z,16.70
2018-09-05T19:32:43.617Z,15.50
2018-09-05T19:35:12.135Z,17.00
2018-09-05T19:37:40.691Z,16.80
2018-09-05T19:40:09.226Z,16.17
2018-09-05T19:42:38.050Z,15.37
2018-09-05T19:45:07.118Z,15.03
2018-09-05T19:47:36.448Z,17.17
2018-09-05T19:50:06.335Z,15.37
2018-09-05T19:52:35.266Z,15.40
2018-09-05T19:55:03.852Z,15.70
2018-09-05T19:57:32.621Z,21.90
2018-09-05T20:00:06.803Z,19.47
2018-09-05T20:02:35.515Z,16.33
2018-09-05T20:05:04.061Z,16.00
2018-09-05T20:07:32.646Z,16.60
2018-09-05T20:10:01.188Z,19.43
2018-09-05T20:12:29.742Z,16.70
2018-09-05T20:14:58.304Z,14.73
2018-09-05T20:17:33.229Z,16.17
2018-09-05T20:20:01.791Z,17.57
2018-09-05T20:22:30.376Z,17.10
2018-09-05T20:24:58.958Z,16.33
2018-09-05T20:27:27.493Z,17.93
2018-09-05T20:29:56.317Z,15.33
2018-09-05T20:32:25.199Z,15.60
2018-09-05T20:34:53.862Z,14.83
2018-09-05T20:37:22.409Z,15.23
2018-09-05T20:39:50.927Z,16.03
2018-09-05T20:42:19.521Z,17.17
2018-09-05T20:44:48.096Z,16.37
2018-09-05T20:47:16.610Z,15.40
2018-09-05T20:49:45.154Z,16.20
2018-09-05T20:52:13.693Z,20.73
2018-09-05T20:54:42.236Z,17.07
2018-09-05T20:57:10.798Z,16.37
2018-09-05T20:59:39.381Z,15.73
2018-09-05T21:02:07.921Z,19.90
2018-09-05T21:04:36.487Z,17.43
2018-09-05T21:07:05.189Z,16.40
2018-09-05T21:09:33.704Z,16.37
2018-09-05T21:12:02.198Z,15.63
2018-09-05T21:14:30.721Z,16.73
2018-09-05T21:16:59.213Z,16.27
2018-09-05T21:19:27.752Z,15.17
2018-09-05T21:21:56.252Z,17.00
2018-09-05T21:24:24.777Z,15.93
2018-09-05T21:26:53.270Z,15.47
2018-09-05T21:29:21.793Z,16.27
2018-09-05T21:31:50.301Z,16.07
2018-09-05T21:34:18.821Z,16.10
2018-09-05T21:36:47.324Z,16.13
2018-09-05T21:39:15.861Z,16.33
2018-09-05T21:41:44.358Z,20.50
2018-09-05T21:44:12.929Z,17.27
2018-09-05T21:46:41.443Z,17.20
2018-09-05T21:49:09.964Z,17.17
2018-09-05T21:51:38.461Z,16.80
2018-09-05T21:54:06.985Z,16.80
2018-09-05T21:56:35.614Z,19.40
2018-09-05T21:59:04.158Z,19.47
2018-09-05T22:01:32.909Z,17.40
2018-09-05T22:04:01.488Z,17.20
2018-09-05T22:06:30.070Z,21.20
2018-09-05T22:08:58.588Z,16.87
2018-09-05T22:11:27.770Z,17.97
2018-09-05T22:13:57.078Z,16.27
2018-09-05T22:16:32.121Z,17.03
2018-09-05T22:19:00.651Z,17.07
2018-09-05T22:21:29.170Z,16.03
2018-09-05T22:23:57.697Z,19.57
2018-09-05T22:26:26.208Z,15.93
2018-09-05T22:28:54.734Z,20.03
2018-09-05T22:31:23.249Z,17.03
2018-09-05T22:33:51.785Z,20.13
2018-09-05T22:36:20.294Z,16.87
2018-09-05T22:38:48.861Z,16.67
2018-09-05T22:41:17.404Z,18.93
2018-09-05T22:43:57.085Z,17.80
2018-09-05T22:46:37.002Z,16.40
2018-09-05T22:51:27.254Z,16.37
2018-09-05T22:54:19.994Z,17.87
2018-09-05T22:57:22.154Z,17.53
2018-09-05T23:00:00.755Z,19.33
2018-09-05T23:03:42.267Z,15.13
2018-09-05T23:06:27.239Z,16.70
2018-09-05T23:08:55.776Z,18.63
2018-09-05T23:11:50.119Z,18.40
2018-09-05T23:14:30.534Z,19.33
2018-09-05T23:19:25.355Z,19.60
2018-09-05T23:21:53.914Z,20.17
2018-09-05T23:24:22.526Z,18.30
2018-09-05T23:26:51.115Z,19.70
2018-09-05T23:29:19.634Z,17.97
2018-09-05T23:31:48.178Z,21.00
2018-09-05T23:34:16.679Z,19.60
2018-09-05T23:36:45.223Z,18.97
2018-09-05T23:39:13.718Z,18.70
2018-09-05T23:41:42.242Z,21.03
2018-09-05T23:44:10.734Z,18.10
2018-09-05T23:46:39.275Z,17.40
2018-09-05T23:49:07.783Z,17.50
2018-09-05T23:51:36.330Z,18.73
2018-09-05T23:54:04.842Z,18.50
2018-09-05T23:56:33.446Z,18.27
2018-09-05T23:59:07.015Z,20.60
